Time;durP1;ratioP1;P1;durP2;ratioP2;P2;SDS_P1;SDS_P2;PMS_P1;PMS_P2;Temp;Humidity;BMP_temperature;BMP_pressure;BME280_temperature;BME280_humidity;BME280_pressure;Samples;Min_cycle;Max_cycle;Signal;HPM_P1;HPM_P2
2022/01/13 00:02:32;;;;;;;19.23;12.50;;;2.40;99.90;;;;;;10346475;28;20349;-73
2022/01/13 00:07:34;;;;;;;18.67;12.20;;;2.60;99.90;;;;;;10362680;28;20244;-73
2022/01/13 00:12:39;;;;;;;15.10;11.57;;;2.70;99.90;;;;;;10354860;28;20287;-73
2022/01/13 00:28:26;;;;;;;18.33;12.93;;;3.00;99.90;;;;;;10345285;28;20221;-74
2022/01/13 00:33:27;;;;;;;18.83;12.20;;;3.10;99.90;;;;;;10344999;28;20229;-73
2022/01/13 00:38:31;;;;;;;17.60;12.23;;;3.20;99.90;;;;;;10339749;28;20221;-74
2022/01/13 00:43:36;;;;;;;16.03;11.47;;;3.30;99.90;;;;;;10352938;28;20735;-73
2022/01/13 00:48:36;;;;;;;17.47;11.50;;;3.40;99.90;;;;;;10346968;28;20317;-74
2022/01/13 00:53:37;;;;;;;17.33;11.23;;;3.30;99.90;;;;;;10351966;28;20327;-74
2022/01/13 00:58:38;;;;;;;18.50;12.73;;;3.30;99.90;;;;;;10345771;28;20707;-74
2022/01/13 01:03:39;;;;;;;16.00;11.70;;;3.30;99.90;;;;;;10352342;28;20309;-73
2022/01/13 01:08:40;;;;;;;16.40;11.00;;;3.40;99.90;;;;;;10352050;28;20284;-74
2022/01/13 01:13:41;;;;;;;17.23;11.93;;;3.50;99.90;;;;;;10352937;28;20228;-73
2022/01/13 01:18:52;;;;;;;16.37;11.70;;;3.50;99.90;;;;;;10345422;28;20577;-73
2022/01/13 01:39:14;;;;;;;18.50;13.00;;;3.70;99.90;;;;;;10347934;28;20233;-73
2022/01/13 01:44:18;;;;;;;17.53;11.80;;;3.70;99.90;;;;;;10331193;28;20244;-73
2022/01/13 01:49:22;;;;;;;17.67;12.47;;;3.70;99.90;;;;;;10352815;28;20214;-73
2022/01/13 01:54:23;;;;;;;18.93;12.33;;;3.80;99.90;;;;;;10344540;28;20261;-73
2022/01/13 01:59:29;;;;;;;16.17;11.80;;;3.80;99.90;;;;;;10349414;28;20225;-73
2022/01/13 02:04:30;;;;;;;18.60;12.23;;;3.80;99.90;;;;;;10343893;28;20229;-73
2022/01/13 02:09:31;;;;;;;17.30;12.20;;;3.80;99.90;;;;;;10365448;28;20700;-72
2022/01/13 02:14:47;;;;;;;17.17;12.97;;;3.80;99.90;;;;;;10361496;28;20326;-73
2022/01/13 02:19:50;;;;;;;18.90;13.23;;;3.90;99.90;;;;;;10325501;28;20222;-73
2022/01/13 02:24:51;;;;;;;18.57;12.73;;;3.90;99.90;;;;;;10357910;28;20229;-73
2022/01/13 02:29:52;;;;;;;15.60;12.23;;;3.90;99.90;;;;;;10351274;28;20313;-73
2022/01/13 02:34:55;;;;;;;17.27;12.03;;;3.90;99.90;;;;;;10356854;28;20237;-74
2022/01/13 02:39:57;;;;;;;17.93;13.27;;;3.90;99.90;;;;;;10357972;28;20218;-72
2022/01/13 02:45:02;;;;;;;19.67;14.10;;;3.80;99.90;;;;;;10352505;28;20238;-73
2022/01/13 02:50:05;;;;;;;19.57;14.20;;;3.80;99.90;;;;;;10349415;28;20233;-73
2022/01/13 02:55:07;;;;;;;20.33;14.60;;;3.80;99.90;;;;;;10355314;28;20236;-74
2022/01/13 03:00:08;;;;;;;18.83;13.53;;;3.80;99.90;;;;;;10364870;28;20669;-73
2022/01/13 03:05:13;;;;;;;20.07;13.83;;;3.70;99.90;;;;;;10358195;28;20191;-73
2022/01/13 03:10:13;;;;;;;18.93;13.87;;;3.60;99.90;;;;;;10347820;28;20756;-73
2022/01/13 03:15:14;;;;;;;19.90;13.87;;;3.70;99.90;;;;;;10357276;28;20288;-72
2022/01/13 03:20:16;;;;;;;19.27;13.63;;;3.70;99.90;;;;;;10342237;28;20194;-73
2022/01/13 03:25:21;;;;;;;18.77;13.43;;;3.70;99.90;;;;;;10356105;28;20191;-73
2022/01/13 03:30:22;;;;;;;17.30;13.03;;;3.70;99.90;;;;;;10352684;28;20261;-74
2022/01/13 03:35:23;;;;;;;18.00;13.90;;;3.70;99.90;;;;;;10353771;28;20177;-72
2022/01/13 03:40:24;;;;;;;17.27;13.87;;;3.70;99.90;;;;;;10356386;28;20292;-72
2022/01/13 03:45:24;;;;;;;16.77;12.17;;;3.60;99.90;;;;;;10356559;28;20233;-73
2022/01/13 03:50:25;;;;;;;17.50;12.83;;;3.60;99.90;;;;;;10350943;28;20222;-73
2022/01/13 03:55:44;;;;;;;18.47;13.07;;;3.50;99.90;;;;;;10352987;28;20296;-72
2022/01/13 04:00:56;;;;;;;18.57;13.50;;;3.60;99.90;;;;;;10354660;28;20243;-73
2022/01/13 04:06:03;;;;;;;18.40;13.60;;;3.60;99.90;;;;;;10355004;28;20236;-74
2022/01/13 04:11:07;;;;;;;18.97;13.37;;;3.60;99.90;;;;;;10354720;28;20234;-72
2022/01/13 04:16:15;;;;;;;19.30;13.90;;;3.60;99.90;;;;;;10347378;28;20255;-72
2022/01/13 04:21:19;;;;;;;18.50;14.30;;;3.60;99.90;;;;;;10339192;28;20229;-72
2022/01/13 04:26:27;;;;;;;19.93;14.90;;;3.60;99.90;;;;;;10328799;28;20222;-71
2022/01/13 04:31:27;;;;;;;22.07;14.97;;;3.60;99.90;;;;;;10354047;28;20233;-72
2022/01/13 04:36:28;;;;;;;22.90;16.53;;;3.60;99.90;;;;;;10349156;28;20230;-72
2022/01/13 04:41:33;;;;;;;24.40;16.07;;;3.60;99.90;;;;;;10350924;28;20499;-72
2022/01/13 04:46:34;;;;;;;22.57;15.73;;;3.70;99.90;;;;;;10353722;28;20704;-73
2022/01/13 04:51:36;;;;;;;21.83;14.50;;;3.70;99.90;;;;;;10346705;28;20337;-74
2022/01/13 05:01:41;;;;;;;19.90;14.93;;;3.60;99.90;;;;;;10354865;28;21064;-74
2022/01/13 05:06:42;;;;;;;20.97;14.73;;;3.60;99.90;;;;;;10344715;28;20230;-72
2022/01/13 05:11:42;;;;;;;19.67;14.33;;;3.50;99.90;;;;;;10352813;28;20226;-73
2022/01/13 05:16:57;;;;;;;19.93;14.17;;;3.50;99.90;;;;;;10342700;28;20236;-72
2022/01/13 05:27:13;;;;;;;21.00;14.70;;;3.60;99.90;;;;;;10347922;28;20229;-74
2022/01/13 05:32:14;;;;;;;20.47;15.17;;;3.60;99.90;;;;;;10354170;28;20233;-73
2022/01/13 05:37:14;;;;;;;21.27;15.33;;;3.70;99.90;;;;;;10351059;28;20549;-70
2022/01/13 05:42:15;;;;;;;21.70;16.20;;;3.70;99.90;;;;;;10353089;28;20229;-71
2022/01/13 05:47:16;;;;;;;20.90;15.47;;;3.60;99.90;;;;;;10354729;28;20237;-71
2022/01/13 05:52:16;;;;;;;22.70;16.60;;;3.60;99.90;;;;;;10355528;28;20264;-71
2022/01/13 05:57:17;;;;;;;23.83;17.13;;;3.50;99.90;;;;;;10351937;28;20242;-73
2022/01/13 06:02:17;;;;;;;24.87;16.10;;;3.50;99.90;;;;;;10341392;28;20254;-72
2022/01/13 06:07:18;;;;;;;22.87;16.17;;;3.60;99.90;;;;;;10358730;28;20260;-73
2022/01/13 06:12:21;;;;;;;23.97;16.63;;;3.60;99.90;;;;;;10354217;28;20874;-73
2022/01/13 06:17:22;;;;;;;23.83;16.37;;;3.60;99.90;;;;;;10354150;28;20227;-72
2022/01/13 06:22:23;;;;;;;23.30;16.00;;;3.60;99.90;;;;;;10360421;28;20320;-72
2022/01/13 06:27:24;;;;;;;21.90;16.53;;;3.60;99.90;;;;;;10350640;28;20441;-74
2022/01/13 06:32:25;;;;;;;21.60;16.33;;;3.60;99.90;;;;;;10348027;28;20712;-74
2022/01/13 06:37:25;;;;;;;20.13;15.10;;;3.70;99.90;;;;;;10355235;28;20221;-73
2022/01/13 06:42:26;;;;;;;24.20;17.60;;;3.70;99.90;;;;;;10357071;28;20256;-73
2022/01/13 06:47:27;;;;;;;25.90;17.50;;;3.70;99.90;;;;;;10341509;28;20481;-74
2022/01/13 06:52:27;;;;;;;22.33;15.83;;;3.70;99.90;;;;;;10357073;28;20221;-74
2022/01/13 06:57:30;;;;;;;21.97;16.60;;;3.70;99.90;;;;;;10353756;28;20317;-73
2022/01/13 07:02:31;;;;;;;19.00;15.00;;;3.70;99.90;;;;;;10353454;28;20222;-74
2022/01/13 07:07:35;;;;;;;21.73;15.73;;;3.80;99.90;;;;;;10363017;28;20332;-74
2022/01/13 07:12:36;;;;;;;21.00;15.97;;;3.80;99.90;;;;;;10349984;28;20235;-73
2022/01/13 07:17:37;;;;;;;20.10;15.70;;;3.80;99.90;;;;;;10353623;28;20241;-74
2022/01/13 07:22:40;;;;;;;21.07;15.83;;;3.80;99.90;;;;;;10333096;28;20651;-73
2022/01/13 07:27:41;;;;;;;22.47;16.70;;;3.80;99.90;;;;;;10344498;28;20231;-73
2022/01/13 07:32:42;;;;;;;21.07;15.03;;;3.80;99.90;;;;;;10359401;28;20626;-73
2022/01/13 07:37:42;;;;;;;20.67;14.53;;;3.90;99.90;;;;;;10346351;28;20225;-72
2022/01/13 07:42:46;;;;;;;19.33;14.53;;;3.90;99.90;;;;;;10354486;28;20225;-73
2022/01/13 07:47:50;;;;;;;19.67;14.33;;;3.90;99.90;;;;;;10344555;28;20250;-73
2022/01/13 07:52:51;;;;;;;17.90;12.77;;;3.90;99.90;;;;;;10349294;28;20511;-73
2022/01/13 07:57:52;;;;;;;19.00;12.87;;;4.00;99.90;;;;;;10340561;28;20269;-74
2022/01/13 08:02:52;;;;;;;18.67;14.03;;;4.00;99.90;;;;;;10348082;28;20242;-73
2022/01/13 08:07:53;;;;;;;19.20;13.17;;;4.00;99.90;;;;;;10369609;28;20240;-74
2022/01/13 08:12:54;;;;;;;16.73;12.80;;;4.10;99.90;;;;;;10338208;28;20229;-74
2022/01/13 08:23:14;;;;;;;21.43;16.70;;;4.10;99.90;;;;;;10351491;28;20232;-75
2022/01/13 08:28:15;;;;;;;23.43;15.37;;;4.10;99.90;;;;;;10337323;28;20229;-73
2022/01/13 08:33:17;;;;;;;21.87;15.37;;;4.10;99.90;;;;;;10347334;28;20271;-73
2022/01/13 08:38:19;;;;;;;26.07;18.07;;;4.10;99.90;;;;;;10351609;28;20231;-72
2022/01/13 08:43:21;;;;;;;14.63;11.20;;;4.20;99.90;;;;;;10331351;28;20225;-73
2022/01/13 08:48:22;;;;;;;14.23;10.50;;;4.30;99.90;;;;;;10358297;28;20685;-74
2022/01/13 08:53:23;;;;;;;17.27;11.70;;;4.30;99.90;;;;;;10362325;28;20260;-73
2022/01/13 08:58:23;;;;;;;17.63;12.47;;;4.40;99.90;;;;;;10348519;28;20229;-73
2022/01/13 09:03:24;;;;;;;18.00;14.23;;;4.40;99.90;;;;;;10338315;28;20245;-72
2022/01/13 09:08:25;;;;;;;19.73;14.60;;;4.30;99.90;;;;;;10338848;28;20760;-73
2022/01/13 09:13:26;;;;;;;20.60;15.50;;;4.40;99.90;;;;;;10350682;28;20618;-73
2022/01/13 09:18:34;;;;;;;24.70;16.87;;;4.40;99.90;;;;;;10341755;28;20336;-74
2022/01/13 09:23:36;;;;;;;19.93;15.13;;;4.40;99.90;;;;;;10334443;28;20225;-73
2022/01/13 09:28:37;;;;;;;19.47;13.67;;;4.50;99.90;;;;;;10350724;28;20704;-73
2022/01/13 09:33:41;;;;;;;19.30;14.63;;;4.40;99.90;;;;;;10350041;28;20234;-72
2022/01/13 09:38:41;;;;;;;19.50;14.50;;;4.30;99.90;;;;;;10351756;28;20242;-72
2022/01/13 09:43:44;;;;;;;19.23;13.83;;;4.30;99.90;;;;;;10346228;28;20277;-71
2022/01/13 09:48:46;;;;;;;18.80;13.43;;;4.40;99.90;;;;;;10341447;28;20257;-73
2022/01/13 09:53:46;;;;;;;17.13;12.43;;;4.40;99.90;;;;;;10349876;28;20236;-72
2022/01/13 09:58:47;;;;;;;18.57;13.07;;;4.50;99.90;;;;;;10349407;28;20571;-72
2022/01/13 10:03:48;;;;;;;16.47;12.60;;;4.60;99.90;;;;;;10339783;28;20315;-72
2022/01/13 10:08:50;;;;;;;17.13;13.40;;;4.60;99.90;;;;;;10351556;28;20712;-73
2022/01/13 10:16:23;;;;;;;16.33;11.87;;;4.50;99.90;;;;;;10342337;28;20712;-72
2022/01/13 10:19:43;;;;;;;18.43;12.50;;;4.50;99.90;;;;;;10348843;28;20224;-73
2022/01/13 10:24:48;;;;;;;15.23;12.30;;;4.60;99.90;;;;;;10350825;28;20240;-73
2022/01/13 10:29:51;;;;;;;15.87;12.97;;;4.70;99.90;;;;;;10358308;28;20230;-74
2022/01/13 10:35:01;;;;;;;15.97;12.47;;;4.80;99.90;;;;;;10332478;28;20785;-72
2022/01/13 10:40:05;;;;;;;15.93;12.70;;;4.90;99.90;;;;;;10336485;28;20244;-73
2022/01/13 10:45:18;;;;;;;16.10;12.73;;;5.00;99.90;;;;;;10336066;28;20234;-72
2022/01/13 10:50:20;;;;;;;15.00;12.27;;;5.10;99.90;;;;;;10359608;28;20174;-74
2022/01/13 10:55:23;;;;;;;16.47;12.03;;;5.10;99.90;;;;;;10361023;28;20280;-73
2022/01/13 11:00:25;;;;;;;16.47;12.57;;;5.20;99.90;;;;;;10340125;28;20227;-74
2022/01/13 11:05:27;;;;;;;17.37;12.37;;;5.30;99.90;;;;;;10354559;28;20233;-74
2022/01/13 11:10:28;;;;;;;18.13;13.40;;;5.50;99.90;;;;;;10358961;28;20225;-74
2022/01/13 11:15:29;;;;;;;17.93;13.23;;;5.60;99.90;;;;;;10356142;28;20217;-74
2022/01/13 11:20:29;;;;;;;18.20;14.93;;;5.70;99.90;;;;;;10350502;28;20210;-74
2022/01/13 11:25:30;;;;;;;19.77;16.47;;;5.80;99.90;;;;;;10339824;28;20224;-74
2022/01/13 11:30:31;;;;;;;18.77;14.87;;;5.80;99.90;;;;;;10356844;28;20225;-74
2022/01/13 11:35:45;;;;;;;19.80;15.93;;;5.80;99.90;;;;;;10348047;28;20229;-74
2022/01/13 11:40:48;;;;;;;17.97;14.93;;;5.80;99.90;;;;;;10340922;28;20720;-74
2022/01/13 11:45:49;;;;;;;20.10;14.63;;;5.90;99.90;;;;;;10352379;28;20306;-73
2022/01/13 11:50:54;;;;;;;17.70;14.03;;;5.90;99.90;;;;;;10331455;28;20276;-73
2022/01/13 11:56:06;;;;;;;21.50;16.93;;;5.90;99.90;;;;;;10362512;28;20254;-74
2022/01/13 12:01:11;;;;;;;24.80;16.00;;;6.10;99.90;;;;;;10337351;28;20214;-74
2022/01/13 12:06:36;;;;;;;18.20;14.97;;;6.10;99.90;;;;;;10353009;28;20226;-73
2022/01/13 12:11:39;;;;;;;19.13;15.17;;;6.20;99.90;;;;;;10358788;28;20229;-73
2022/01/13 12:17:03;;;;;;;22.83;16.57;;;6.20;99.90;;;;;;10360817;28;20229;-74
2022/01/13 12:22:14;;;;;;;21.73;18.33;;;6.00;99.90;;;;;;10334817;28;20233;-73
2022/01/13 12:27:17;;;;;;;22.53;17.57;;;5.80;99.90;;;;;;10337743;28;20713;-74
2022/01/13 12:32:33;;;;;;;25.20;20.60;;;5.70;99.90;;;;;;10348060;28;20281;-74
2022/01/13 12:37:39;;;;;;;27.00;18.70;;;5.70;99.90;;;;;;10347573;28;20267;-75
2022/01/13 12:42:49;;;;;;;22.97;19.03;;;5.80;99.90;;;;;;10351540;28;20225;-75
2022/01/13 12:47:51;;;;;;;22.40;18.03;;;6.00;99.90;;;;;;10357002;28;20971;-74
2022/01/13 12:53:17;;;;;;;23.50;18.50;;;5.90;99.90;;;;;;10350536;28;20229;-74
2022/01/13 12:58:21;;;;;;;22.13;18.10;;;6.10;99.90;;;;;;10337123;28;20225;-73
2022/01/13 13:03:22;;;;;;;20.43;16.27;;;6.40;99.90;;;;;;10350378;28;20240;-74
2022/01/13 13:08:25;;;;;;;19.47;16.30;;;6.50;99.90;;;;;;10347269;28;20230;-75
2022/01/13 13:13:28;;;;;;;21.00;16.07;;;6.40;99.90;;;;;;10344287;28;20234;-75
2022/01/13 13:18:31;;;;;;;20.53;17.30;;;6.40;99.90;;;;;;10333396;28;20639;-75
2022/01/13 13:23:34;;;;;;;20.60;17.23;;;6.40;99.90;;;;;;10354404;28;20798;-75
2022/01/13 13:28:41;;;;;;;24.33;17.67;;;6.40;99.90;;;;;;10336940;28;20228;-75
2022/01/13 13:34:14;;;;;;;23.43;17.53;;;6.40;99.90;;;;;;10333700;28;20308;-75
2022/01/13 13:39:17;;;;;;;22.87;18.33;;;6.10;99.90;;;;;;10351303;28;20218;-74
2022/01/13 13:44:26;;;;;;;21.90;17.77;;;6.00;99.90;;;;;;10350754;28;20230;-75
2022/01/13 13:49:27;;;;;;;24.23;19.00;;;6.00;99.90;;;;;;10338289;28;20300;-73
2022/01/13 13:54:34;;;;;;;23.17;19.17;;;5.90;99.90;;;;;;10355504;28;20233;-74
2022/01/13 13:59:48;;;;;;;24.37;18.53;;;5.60;99.90;;;;;;10358075;28;20221;-74
2022/01/13 14:04:52;;;;;;;23.60;18.87;;;5.40;99.90;;;;;;10352291;28;20225;-74
2022/01/13 14:10:12;;;;;;;26.97;19.93;;;5.40;99.90;;;;;;10335616;28;20705;-74
2022/01/13 14:15:30;;;;;;;25.30;18.57;;;5.10;99.90;;;;;;10361180;28;20244;-75
2022/01/13 14:20:32;;;;;;;24.00;19.63;;;5.00;99.90;;;;;;10333325;28;20217;-74
2022/01/13 14:25:39;;;;;;;23.93;20.07;;;4.90;99.90;;;;;;10350987;28;20247;-74
2022/01/13 14:30:46;;;;;;;24.87;19.90;;;4.80;99.90;;;;;;10351834;28;20227;-75
2022/01/13 14:36:19;;;;;;;25.27;19.57;;;4.70;99.90;;;;;;10357737;28;20220;-75
2022/01/13 14:41:34;;;;;;;26.40;19.37;;;4.70;99.90;;;;;;10336783;28;20240;-74
2022/01/13 14:46:43;;;;;;;25.40;17.97;;;4.60;99.90;;;;;;10335565;28;20308;-74
2022/01/13 14:51:47;;;;;;;23.13;19.17;;;4.60;99.90;;;;;;10348345;28;20683;-73
2022/01/13 14:56:48;;;;;;;22.63;19.27;;;4.60;99.90;;;;;;10340819;28;20220;-74
2022/01/13 15:01:49;;;;;;;25.60;20.20;;;4.50;99.90;;;;;;10360188;28;20225;-73
2022/01/13 15:06:50;;;;;;;25.03;18.93;;;4.50;99.90;;;;;;10349632;28;20709;-73
2022/01/13 15:11:50;;;;;;;22.53;17.60;;;4.60;99.90;;;;;;10354514;28;20284;-73
2022/01/13 15:16:51;;;;;;;24.90;18.87;;;4.50;99.90;;;;;;10353839;28;20224;-74
2022/01/13 15:21:52;;;;;;;22.80;18.37;;;4.50;99.90;;;;;;10352052;28;20259;-74
2022/01/13 15:26:53;;;;;;;25.40;19.07;;;4.50;99.90;;;;;;10348142;28;20562;-73
2022/01/13 15:31:53;;;;;;;27.60;20.80;;;4.40;99.90;;;;;;10354772;28;20237;-74
2022/01/13 15:36:54;;;;;;;25.77;19.67;;;4.30;99.90;;;;;;10363326;28;20225;-74
2022/01/13 15:41:55;;;;;;;25.83;19.80;;;4.20;99.90;;;;;;10356633;28;20229;-73
2022/01/13 15:46:55;;;;;;;25.67;20.87;;;4.10;99.90;;;;;;10353552;28;20244;-74
2022/01/13 15:51:56;;;;;;;28.10;21.53;;;4.10;99.90;;;;;;10352351;28;20355;-74
2022/01/13 15:56:57;;;;;;;28.13;21.77;;;4.00;99.90;;;;;;10349052;28;20233;-73
2022/01/13 16:01:57;;;;;;;28.83;21.30;;;4.00;99.90;;;;;;10339468;28;20258;-74
2022/01/13 16:06:58;;;;;;;27.17;20.57;;;4.00;99.90;;;;;;10341864;28;20222;-74
2022/01/13 16:11:59;;;;;;;30.50;23.20;;;4.00;99.90;;;;;;10353277;28;20230;-74
2022/01/13 16:17:00;;;;;;;29.33;22.00;;;3.80;99.90;;;;;;10344209;28;20221;-74
2022/01/13 16:22:01;;;;;;;28.83;22.27;;;3.90;99.90;;;;;;10346582;28;20229;-73
2022/01/13 16:27:06;;;;;;;30.33;22.33;;;3.90;99.90;;;;;;10345771;28;20648;-73
2022/01/13 16:32:07;;;;;;;33.90;25.40;;;3.90;99.90;;;;;;10349264;28;20719;-73
2022/01/13 16:37:08;;;;;;;31.80;23.90;;;3.90;99.90;;;;;;10353180;28;20225;-74
2022/01/13 16:42:09;;;;;;;30.20;23.53;;;3.80;99.90;;;;;;10348041;28;20279;-73
2022/01/13 16:47:15;;;;;;;30.77;23.40;;;3.80;99.90;;;;;;10345686;28;20342;-74
2022/01/13 16:52:16;;;;;;;31.60;22.90;;;3.80;99.90;;;;;;10349027;28;20221;-73
2022/01/13 16:57:17;;;;;;;29.73;21.90;;;3.80;99.90;;;;;;10350103;28;20228;-73
2022/01/13 17:02:17;;;;;;;32.47;23.27;;;3.80;99.90;;;;;;10352501;28;20232;-74
2022/01/13 17:07:18;;;;;;;31.10;23.00;;;3.70;99.90;;;;;;10335134;28;20232;-75
2022/01/13 17:12:22;;;;;;;29.63;23.27;;;3.70;99.90;;;;;;10343870;28;20240;-73
2022/01/13 17:17:22;;;;;;;33.33;25.03;;;3.70;99.90;;;;;;10351209;28;20221;-75
2022/01/13 17:22:23;;;;;;;29.63;23.03;;;3.70;99.90;;;;;;10351619;28;20272;-73
2022/01/13 17:27:24;;;;;;;33.37;24.40;;;3.70;99.90;;;;;;10346872;28;20321;-74
2022/01/13 17:32:26;;;;;;;36.57;26.53;;;3.50;99.90;;;;;;10365668;28;20249;-74
2022/01/13 17:37:27;;;;;;;36.03;25.43;;;3.40;99.90;;;;;;10337467;28;20246;-74
2022/01/13 17:42:28;;;;;;;34.20;25.23;;;3.50;99.90;;;;;;10362926;28;20225;-74
2022/01/13 17:47:30;;;;;;;33.30;23.53;;;3.50;99.90;;;;;;10353930;28;20240;-73
2022/01/13 17:52:31;;;;;;;32.50;24.53;;;3.40;99.90;;;;;;10349106;28;20246;-73
2022/01/13 17:57:33;;;;;;;34.20;24.57;;;3.40;99.90;;;;;;10364840;28;20704;-73
2022/01/13 18:02:33;;;;;;;35.40;26.03;;;3.40;99.90;;;;;;10356612;28;20360;-73
2022/01/13 18:07:34;;;;;;;38.60;26.57;;;3.40;99.90;;;;;;10358437;28;20343;-73
2022/01/13 18:12:36;;;;;;;35.93;26.63;;;3.40;99.90;;;;;;10353897;28;20230;-73
2022/01/13 18:17:38;;;;;;;38.20;27.13;;;3.40;99.90;;;;;;10338987;28;20590;-74
2022/01/13 18:22:40;;;;;;;35.40;25.63;;;3.40;99.90;;;;;;10350498;28;20606;-74
2022/01/13 18:27:41;;;;;;;36.57;26.43;;;3.50;99.90;;;;;;10331503;28;20313;-73
2022/01/13 18:32:42;;;;;;;37.93;26.37;;;3.60;99.90;;;;;;10337250;28;20221;-74
2022/01/13 18:37:43;;;;;;;37.50;26.27;;;3.50;99.90;;;;;;10362051;28;20218;-74
2022/01/13 18:42:50;;;;;;;40.80;27.37;;;3.40;99.90;;;;;;10356689;28;20245;-73
2022/01/13 18:47:58;;;;;;;44.70;28.10;;;3.30;99.90;;;;;;10341797;28;20229;-73
2022/01/13 18:52:59;;;;;;;39.97;26.37;;;3.30;99.90;;;;;;10350406;28;20222;-74
2022/01/13 18:58:00;;;;;;;40.87;27.27;;;3.30;99.90;;;;;;10365661;28;20313;-75
2022/01/13 19:03:01;;;;;;;44.33;28.80;;;3.30;99.90;;;;;;10354643;28;20599;-74
2022/01/13 19:08:05;;;;;;;40.97;27.63;;;3.30;99.90;;;;;;10333902;28;20222;-73
2022/01/13 19:13:06;;;;;;;40.57;27.47;;;3.30;99.90;;;;;;10341791;28;20598;-73
2022/01/13 19:18:06;;;;;;;46.63;28.93;;;3.30;99.90;;;;;;10352638;28;20217;-73
2022/01/13 19:23:07;;;;;;;45.93;29.33;;;3.30;99.90;;;;;;10350057;28;21048;-73
2022/01/13 19:28:09;;;;;;;40.27;27.47;;;3.30;99.90;;;;;;10350456;28;20799;-75
2022/01/13 19:33:11;;;;;;;42.83;28.63;;;3.30;99.90;;;;;;10347743;28;20238;-74
2022/01/13 19:38:11;;;;;;;43.97;26.47;;;3.40;99.90;;;;;;10364581;28;20232;-73
2022/01/13 19:43:12;;;;;;;41.27;27.13;;;3.30;99.90;;;;;;10370712;28;20229;-73
2022/01/13 19:48:13;;;;;;;46.70;39.70;;;3.30;99.90;;;;;;10360753;28;20443;-73
2022/01/13 19:53:14;;;;;;;40.43;28.23;;;3.40;99.90;;;;;;10358163;28;20221;-73
2022/01/13 19:58:15;;;;;;;39.50;26.50;;;3.40;99.90;;;;;;10358463;28;20217;-72
2022/01/13 20:03:15;;;;;;;39.70;26.27;;;3.30;99.90;;;;;;10376355;28;20252;-72
2022/01/13 20:08:17;;;;;;;43.13;27.10;;;3.10;99.90;;;;;;10365296;28;20345;-73
2022/01/13 20:13:18;;;;;;;45.27;29.63;;;3.20;99.90;;;;;;10367719;28;20225;-74
2022/01/13 20:18:19;;;;;;;42.50;27.13;;;3.30;99.90;;;;;;10367261;28;20221;-73
2022/01/13 20:23:21;;;;;;;47.17;29.07;;;3.30;99.90;;;;;;10385279;28;20642;-74
2022/01/13 20:28:22;;;;;;;49.13;28.03;;;3.30;99.90;;;;;;10379465;28;20301;-73
2022/01/13 20:33:23;;;;;;;47.13;29.63;;;3.30;99.90;;;;;;10366614;28;20279;-74
2022/01/13 20:38:23;;;;;;;43.70;28.00;;;3.40;99.90;;;;;;10345003;28;20241;-73
2022/01/13 20:43:24;;;;;;;52.87;29.67;;;3.30;99.90;;;;;;10386869;28;20312;-74
2022/01/13 20:48:25;;;;;;;49.70;30.50;;;3.20;99.90;;;;;;10371510;28;20250;-73
2022/01/13 20:53:26;;;;;;;53.93;30.30;;;3.20;99.90;;;;;;10370615;28;20727;-73
2022/01/13 20:58:27;;;;;;;49.23;28.93;;;3.20;99.90;;;;;;10369094;28;20233;-74
2022/01/13 21:03:27;;;;;;;48.50;27.77;;;3.10;99.90;;;;;;10371181;28;20700;-74
2022/01/13 21:08:30;;;;;;;53.33;30.73;;;3.10;99.90;;;;;;10373978;28;20244;-75
2022/01/13 21:13:31;;;;;;;51.77;31.13;;;3.00;99.90;;;;;;10360752;28;20224;-73
2022/01/13 21:18:33;;;;;;;59.43;31.50;;;3.10;99.90;;;;;;10335996;28;20573;-74
2022/01/13 21:23:33;;;;;;;50.30;30.73;;;3.10;99.90;;;;;;10363122;28;20253;-73
2022/01/13 21:28:34;;;;;;;49.60;30.83;;;3.10;99.90;;;;;;10369102;28;20658;-74
2022/01/13 21:33:35;;;;;;;45.10;28.23;;;3.10;99.90;;;;;;10377451;28;20233;-74
2022/01/13 21:38:36;;;;;;;50.97;29.67;;;3.00;99.90;;;;;;10352124;28;20679;-73
2022/01/13 21:43:36;;;;;;;45.10;28.20;;;3.10;99.90;;;;;;10362181;28;20693;-73
2022/01/13 21:48:38;;;;;;;51.60;30.13;;;3.10;99.90;;;;;;10383043;28;20253;-74
2022/01/13 21:53:38;;;;;;;46.93;29.60;;;3.00;99.90;;;;;;10365642;28;20339;-75
2022/01/13 21:58:40;;;;;;;44.13;28.87;;;3.00;99.90;;;;;;10375867;28;20318;-75
2022/01/13 22:03:47;;;;;;;46.10;29.17;;;3.00;99.90;;;;;;10359082;28;20227;-75
2022/01/13 22:13:51;;;;;;;48.20;28.67;;;3.00;99.90;;;;;;10363515;28;20235;-75
2022/01/13 22:18:52;;;;;;;48.90;27.97;;;3.00;99.90;;;;;;10364663;28;20226;-74
2022/01/13 22:23:53;;;;;;;51.00;29.43;;;3.00;99.90;;;;;;10377374;28;20683;-74
2022/01/13 22:28:54;;;;;;;45.40;28.30;;;3.00;99.90;;;;;;10360976;28;20252;-74
2022/01/13 22:33:55;;;;;;;46.03;28.70;;;3.00;99.90;;;;;;10377887;28;20535;-73
2022/01/13 22:38:55;;;;;;;49.90;28.73;;;2.90;99.90;;;;;;10360194;28;20603;-74
2022/01/13 22:43:56;;;;;;;43.53;27.30;;;3.00;99.90;;;;;;10380265;28;20255;-74
2022/01/13 22:48:57;;;;;;;44.20;26.83;;;3.10;99.90;;;;;;10373674;28;20320;-74
2022/01/13 22:53:58;;;;;;;67.70;27.50;;;3.10;99.90;;;;;;10368628;28;20251;-74
2022/01/13 22:58:58;;;;;;;48.30;27.50;;;3.10;99.90;;;;;;10369854;28;20599;-74
2022/01/13 23:04:02;;;;;;;55.93;26.20;;;3.00;99.90;;;;;;10374040;28;20288;-75
2022/01/13 23:09:03;;;;;;;50.33;28.17;;;2.90;99.90;;;;;;10346074;28;20241;-75
2022/01/13 23:14:11;;;;;;;43.23;25.93;;;2.80;99.90;;;;;;10360900;28;20600;-75
2022/01/13 23:24:31;;;;;;;53.23;28.70;;;2.60;99.90;;;;;;10376234;28;20236;-73
2022/01/13 23:29:31;;;;;;;54.77;28.50;;;2.60;99.90;;;;;;10367783;28;20237;-74
2022/01/13 23:34:35;;;;;;;77.17;31.80;;;2.60;99.90;;;;;;10380419;28;20324;-73
2022/01/13 23:39:36;;;;;;;50.70;29.77;;;2.70;99.90;;;;;;10353440;28;20230;-73
2022/01/13 23:44:44;;;;;;;66.73;28.93;;;2.80;99.90;;;;;;10369712;28;20600;-73
2022/01/13 23:49:50;;;;;;;50.10;28.70;;;2.80;99.90;;;;;;10370576;28;20234;-73
2022/01/13 23:54:53;;;;;;;65.40;30.27;;;2.90;99.90;;;;;;10362176;28;20706;-75
2022/01/13 23:59:54;;;;;;;55.77;30.07;;;2.90;99.90;;;;;;10360238;28;20221;-72
